METAR Data

Data at: 2155 UTC 26 Feb 2020

METAR for:KMLT (Millinocket Muni, ME, US)
Text:KMLT 262153Z AUTO 05004KT 10SM OVC100 04/M04 A3006 RMK AO2 SLP188 T00441044
Temperature: 4.4°C ( 40°F)
Dewpoint: -4.4°C ( 24°F) [RH = 53%]
Pressure (altimeter):30.06 inches Hg (1018.0 mb) [Sea level pressure: 1018.8 mb]
Winds:from the NE (50 degrees) at 5 MPH (4 knots; 2.1 m/s)
Visibility:10 or more sm (16+ km)
Ceiling:10000 feet AGL
Clouds: overcast cloud deck at 10000 feet AGL
QC Flag:automated observation with no human augmentation